Time;durP1;ratioP1;P1;durP2;ratioP2;P2;SDS_P1;SDS_P2;PMS_P1;PMS_P2;Temp;Humidity;BMP_temperature;BMP_pressure;BME280_temperature;BME280_humidity;BME280_pressure;Samples;Min_cycle;Max_cycle;Signal;HPM_P1;HPM_P2
2023/03/26 00:00:55;;;;;;;;;;;;;;;9.18;nan;98055.16;5025677;28;20026;-61
2023/03/26 00:03:21;;;;;;;;;;;;;;;9.29;nan;98057.50;5030645;28;19976;-60
2023/03/26 00:05:47;;;;;;;;;;;;;;;9.34;nan;98058.19;5027938;28;20541;-60
2023/03/26 00:08:13;;;;;;;;;;;;;;;9.26;nan;98050.72;5027176;28;20102;-59
2023/03/26 00:10:39;;;;;;;;;;;;;;;9.30;nan;98048.91;5024941;28;19921;-62
2023/03/26 00:13:05;;;;;;;;;;;;;;;9.26;nan;98048.16;5027753;28;19960;-60
2023/03/26 00:15:31;;;;;;;;;;;;;;;9.22;nan;98053.38;5029457;28;20020;-59
2023/03/26 00:17:59;;;;;;;;;;;;;;;9.21;nan;98067.06;5029588;28;20008;-61
2023/03/26 00:20:26;;;;;;;;;;;;;;;9.28;nan;98058.38;5027318;28;20029;-61
2023/03/26 00:22:52;;;;;;;;;;;;;;;9.30;nan;98061.72;5030408;28;19921;-61
2023/03/26 00:25:19;;;;;;;;;;;;;;;9.34;nan;98064.16;5028565;28;19951;-60
2023/03/26 00:27:44;;;;;;;;;;;;;;;9.36;nan;98066.69;5029536;28;19944;-60
2023/03/26 00:30:10;;;;;;;;;;;;;;;9.34;nan;98066.72;5028011;28;19979;-62
2023/03/26 00:32:36;;;;;;;;;;;;;;;9.25;nan;98066.94;5037479;28;19929;-59
2023/03/26 00:35:02;;;;;;;;;;;;;;;9.26;nan;98065.22;5028675;28;20051;-62
2023/03/26 00:37:29;;;;;;;;;;;;;;;9.37;nan;98070.94;5031361;28;19928;-62
2023/03/26 00:40:01;;;;;;;;;;;;;;;9.35;nan;98059.88;5029103;28;19924;-62
2023/03/26 00:42:27;;;;;;;;;;;;;;;9.25;nan;98056.69;5029771;28;20011;-62
2023/03/26 00:44:59;;;;;;;;;;;;;;;9.18;nan;98055.16;5044826;28;19916;-62
2023/03/26 00:47:28;;;;;;;;;;;;;;;9.22;nan;98063.59;5028575;28;19978;-62
2023/03/26 00:49:53;;;;;;;;;;;;;;;9.08;nan;98066.50;5037111;28;19921;-62
2023/03/26 00:52:19;;;;;;;;;;;;;;;9.12;nan;98057.88;5034034;28;20466;-62
2023/03/26 00:54:45;;;;;;;;;;;;;;;9.05;nan;98051.19;5030037;28;20444;-62
2023/03/26 00:57:12;;;;;;;;;;;;;;;8.85;nan;98040.56;5031014;28;20049;-62
2023/03/26 00:59:41;;;;;;;;;;;;;;;8.89;nan;98053.25;5029741;28;20012;-62
2023/03/26 01:02:09;;;;;;;;;;;;;;;9.01;nan;98055.53;5030269;28;19925;-61
2023/03/26 01:04:36;;;;;;;;;;;;;;;8.85;nan;98054.19;5029398;28;19921;-62
2023/03/26 01:07:21;;;;;;;;;;;;;;;8.99;nan;98052.19;5029524;28;19921;-62
2023/03/26 01:09:51;;;;;;;;;;;;;;;8.97;nan;98053.94;5043550;28;19988;-62
2023/03/26 01:12:19;;;;;;;;;;;;;;;9.09;nan;98061.31;5030198;28;19921;-60
2023/03/26 01:14:46;;;;;;;;;;;;;;;8.97;nan;98046.25;5028467;28;20329;-60
2023/03/26 01:17:12;;;;;;;;;;;;;;;9.05;nan;98051.19;5027730;28;19920;-61
2023/03/26 01:19:47;;;;;;;;;;;;;;;9.02;nan;98041.03;5028074;28;19921;-61
2023/03/26 01:22:15;;;;;;;;;;;;;;;9.03;nan;98028.25;5029466;28;20012;-63
2023/03/26 01:24:40;;;;;;;;;;;;;;;8.97;nan;98032.63;5030564;28;19928;-61
2023/03/26 01:27:25;;;;;;;;;;;;;;;9.11;nan;98031.47;5029315;28;20198;-62
2023/03/26 01:29:56;;;;;;;;;;;;;;;9.06;nan;98028.16;5029513;28;19925;-63
2023/03/26 01:32:40;;;;;;;;;;;;;;;8.91;nan;98030.22;5030229;28;19990;-63
2023/03/26 01:35:14;;;;;;;;;;;;;;;8.97;nan;98030.91;5029208;28;19928;-62
2023/03/26 01:37:45;;;;;;;;;;;;;;;9.09;nan;98012.75;5028488;28;20018;-62
2023/03/26 01:40:48;;;;;;;;;;;;;;;9.13;nan;98016.91;5026638;28;19920;-69
2023/03/26 01:43:16;;;;;;;;;;;;;;;9.18;nan;98022.75;4953851;28;19928;-62
2023/03/26 01:45:45;;;;;;;;;;;;;;;9.25;nan;98020.88;4963656;28;20432;-61
2023/03/26 01:48:10;;;;;;;;;;;;;;;9.33;nan;98019.03;4978424;28;19932;-60
2023/03/26 01:50:36;;;;;;;;;;;;;;;9.51;nan;98010.88;4978783;28;20340;-60
2023/03/26 01:53:02;;;;;;;;;;;;;;;9.44;nan;98011.06;4977758;28;20325;-61
2023/03/26 01:55:33;;;;;;;;;;;;;;;9.39;nan;98010.34;4971076;28;20277;-60
2023/03/26 01:58:07;;;;;;;;;;;;;;;9.29;nan;98012.31;4956082;28;20300;-63
2023/03/26 02:00:56;;;;;;;;;;;;;;;9.07;nan;98004.28;4976283;28;19925;-61
2023/03/26 02:03:45;;;;;;;;;;;;;;;9.15;nan;98014.31;4884721;29;20476;-61
2023/03/26 02:06:18;;;;;;;;;;;;;;;9.27;nan;98014.03;4890135;29;20013;-60
2023/03/26 02:08:53;;;;;;;;;;;;;;;9.56;nan;98014.16;4893264;29;19923;-60
2023/03/26 02:11:19;;;;;;;;;;;;;;;9.52;nan;98011.72;4888353;29;20079;-60
2023/03/26 02:13:45;;;;;;;;;;;;;;;9.44;nan;98004.25;4891429;29;19927;-60
2023/03/26 02:16:17;;;;;;;;;;;;;;;9.43;nan;98007.66;4897686;28;19942;-61
2023/03/26 02:18:44;;;;;;;;;;;;;;;9.37;nan;98012.09;4962199;28;19922;-60
2023/03/26 02:21:18;;;;;;;;;;;;;;;9.57;nan;98003.06;4962276;28;19932;-60
2023/03/26 02:23:46;;;;;;;;;;;;;;;9.60;nan;98010.66;4944954;28;20043;-61
2023/03/26 02:26:13;;;;;;;;;;;;;;;9.54;nan;98020.22;4947457;28;19950;-61
2023/03/26 02:28:51;;;;;;;;;;;;;;;9.49;nan;98017.75;4948124;28;19996;-61
2023/03/26 02:31:18;;;;;;;;;;;;;;;9.46;nan;98012.69;4946836;28;19926;-61
2023/03/26 02:33:46;;;;;;;;;;;;;;;9.67;nan;98019.03;4962782;28;19933;-61
2023/03/26 02:36:13;;;;;;;;;;;;;;;9.59;nan;98024.31;4946366;28;20395;-61
2023/03/26 02:38:41;;;;;;;;;;;;;;;9.54;nan;98028.72;4946073;28;20425;-61
2023/03/26 02:41:07;;;;;;;;;;;;;;;9.40;nan;98035.06;5011706;28;19924;-61
2023/03/26 02:43:50;;;;;;;;;;;;;;;9.24;nan;98028.63;5037607;28;20008;-61
2023/03/26 02:46:19;;;;;;;;;;;;;;;8.95;nan;98019.06;5021535;28;19931;-61
2023/03/26 02:49:05;;;;;;;;;;;;;;;9.14;nan;98017.75;5046064;28;19925;-60
2023/03/26 02:51:33;;;;;;;;;;;;;;;9.34;nan;98022.38;5036244;28;19936;-61
2023/03/26 02:54:19;;;;;;;;;;;;;;;9.31;nan;98032.69;5031633;28;19927;-61
2023/03/26 02:57:03;;;;;;;;;;;;;;;9.31;nan;98035.25;5028761;28;19932;-60
2023/03/26 02:59:49;;;;;;;;;;;;;;;9.12;nan;98032.31;5030302;28;20023;-61
2023/03/26 03:02:33;;;;;;;;;;;;;;;9.00;nan;98032.56;5032510;28;20255;-63
2023/03/26 03:05:16;;;;;;;;;;;;;;;9.07;nan;98031.56;5029517;28;20497;-62
2023/03/26 03:07:45;;;;;;;;;;;;;;;9.10;nan;98031.47;5028913;28;19925;-61
2023/03/26 03:10:12;;;;;;;;;;;;;;;9.03;nan;98032.50;5043455;28;20451;-62
2023/03/26 03:13:02;;;;;;;;;;;;;;;8.90;nan;98034.50;5022865;28;20017;-61
2023/03/26 03:15:28;;;;;;;;;;;;;;;8.70;nan;98028.94;5029290;28;20012;-62
2023/03/26 03:17:54;;;;;;;;;;;;;;;8.52;nan;98022.53;5031109;28;19935;-62
2023/03/26 03:20:20;;;;;;;;;;;;;;;8.73;nan;98021.25;5039523;28;20379;-63
2023/03/26 03:22:46;;;;;;;;;;;;;;;8.46;nan;98025.19;5035829;28;19925;-61
2023/03/26 03:25:13;;;;;;;;;;;;;;;8.23;nan;98022.25;5033051;28;19932;-62
2023/03/26 03:27:40;;;;;;;;;;;;;;;8.12;nan;98021.59;5045340;28;19948;-62
2023/03/26 03:30:11;;;;;;;;;;;;;;;7.98;nan;98021.84;5034679;28;20014;-61
2023/03/26 03:32:57;;;;;;;;;;;;;;;7.99;nan;98023.53;5033664;28;20086;-62
2023/03/26 03:35:24;;;;;;;;;;;;;;;8.18;nan;98021.50;5039834;28;20094;-62
2023/03/26 03:37:55;;;;;;;;;;;;;;;8.09;nan;98021.66;5033901;28;19928;-63
2023/03/26 03:40:21;;;;;;;;;;;;;;;8.01;nan;98026.91;5038294;28;19998;-62
2023/03/26 03:42:47;;;;;;;;;;;;;;;8.00;nan;98026.94;5034478;28;20383;-63
2023/03/26 03:45:18;;;;;;;;;;;;;;;7.83;nan;98027.25;5042110;28;19976;-63
2023/03/26 03:47:44;;;;;;;;;;;;;;;7.66;nan;98029.25;5028920;28;19956;-62
2023/03/26 03:50:10;;;;;;;;;;;;;;;7.62;nan;98022.50;5033444;28;20611;-62
2023/03/26 03:52:43;;;;;;;;;;;;;;;7.91;nan;98039.84;5041534;28;20491;-61
2023/03/26 03:55:10;;;;;;;;;;;;;;;8.12;nan;98021.59;5034942;28;19928;-61
2023/03/26 03:57:44;;;;;;;;;;;;;;;8.35;nan;98032.25;5034869;28;20371;-62
2023/03/26 04:00:15;;;;;;;;;;;;;;;8.40;nan;98014.28;5032873;28;20348;-62
2023/03/26 04:02:41;;;;;;;;;;;;;;;8.27;nan;98032.34;5025662;28;19928;-62
2023/03/26 04:05:10;;;;;;;;;;;;;;;8.18;nan;98032.56;5038224;28;19932;-62
2023/03/26 04:07:38;;;;;;;;;;;;;;;8.05;nan;98033.66;5031633;28;19978;-62
2023/03/26 04:10:04;;;;;;;;;;;;;;;7.98;nan;98031.22;5036035;28;20027;-62
2023/03/26 04:12:50;;;;;;;;;;;;;;;7.76;nan;98031.63;5027351;28;20011;-62
2023/03/26 04:15:17;;;;;;;;;;;;;;;7.67;nan;98025.84;5036669;28;19928;-61
2023/03/26 04:17:44;;;;;;;;;;;;;;;7.50;nan;98018.47;5026658;28;20750;-62
2023/03/26 04:20:14;;;;;;;;;;;;;;;7.52;nan;98029.47;5035969;28;19929;-62
2023/03/26 04:22:42;;;;;;;;;;;;;;;7.57;nan;98026.84;5035092;28;20016;-61
2023/03/26 04:25:10;;;;;;;;;;;;;;;7.43;nan;98023.66;5028168;28;19948;-61
2023/03/26 04:27:45;;;;;;;;;;;;;;;7.33;nan;98026.41;5028281;28;19929;-62
2023/03/26 04:30:23;;;;;;;;;;;;;;;7.29;nan;98022.22;5033282;28;19925;-61
2023/03/26 04:32:57;;;;;;;;;;;;;;;7.18;nan;98011.31;5032296;28;20324;-62
2023/03/26 04:35:23;;;;;;;;;;;;;;;7.08;nan;98014.91;5030604;28;19925;-62
2023/03/26 04:37:53;;;;;;;;;;;;;;;6.97;nan;98011.66;5035504;28;19928;-62
2023/03/26 04:40:29;;;;;;;;;;;;;;;6.83;nan;98009.28;5031368;28;19925;-61
2023/03/26 04:42:58;;;;;;;;;;;;;;;6.68;nan;98013.75;5025741;28;19920;-65
2023/03/26 04:45:47;;;;;;;;;;;;;;;6.52;nan;98007.19;5023249;28;19982;-62
2023/03/26 04:48:14;;;;;;;;;;;;;;;6.41;nan;98014.94;5030300;28;20043;-61
2023/03/26 04:50:42;;;;;;;;;;;;;;;6.45;nan;98013.22;5026704;28;19936;-62
2023/03/26 04:53:12;;;;;;;;;;;;;;;6.41;nan;98018.34;5023737;28;19997;-62
2023/03/26 04:56:00;;;;;;;;;;;;;;;6.37;nan;98024.34;5028705;28;20055;-62
2023/03/26 04:58:48;;;;;;;;;;;;;;;6.24;nan;98017.69;5028593;28;19975;-62
2023/03/26 05:01:16;;;;;;;;;;;;;;;6.18;nan;98006.75;5026376;28;20280;-63
2023/03/26 05:03:44;;;;;;;;;;;;;;;6.13;nan;98011.06;5035077;28;20572;-62
2023/03/26 05:06:12;;;;;;;;;;;;;;;6.07;nan;98009.41;5030729;28;19925;-61
2023/03/26 05:08:37;;;;;;;;;;;;;;;6.05;nan;98011.16;5028065;28;19961;-62
2023/03/26 05:11:10;;;;;;;;;;;;;;;6.02;nan;98005.25;4995253;28;19921;-62
2023/03/26 05:13:36;;;;;;;;;;;;;;;5.97;nan;98020.56;5029288;28;19921;-62
2023/03/26 05:16:06;;;;;;;;;;;;;;;5.92;nan;98002.81;5031461;28;20058;-62
2023/03/26 05:18:47;;;;;;;;;;;;;;;5.95;nan;98014.63;5032143;28;20253;-63
2023/03/26 05:21:13;;;;;;;;;;;;;;;5.93;nan;98009.59;5035434;28;19924;-63
2023/03/26 05:23:39;;;;;;;;;;;;;;;5.96;nan;98011.25;5020107;28;20394;-63
2023/03/26 05:26:12;;;;;;;;;;;;;;;6.03;nan;98012.84;5029267;28;19924;-63
2023/03/26 05:28:39;;;;;;;;;;;;;;;6.11;nan;98013.59;5037930;28;20026;-64
2023/03/26 05:31:19;;;;;;;;;;;;;;;6.17;nan;98011.00;5043315;28;20026;-63
2023/03/26 05:33:47;;;;;;;;;;;;;;;6.23;nan;98021.13;5035704;28;19925;-63
2023/03/26 05:36:14;;;;;;;;;;;;;;;6.28;nan;98023.63;5036984;28;19944;-61
2023/03/26 05:38:48;;;;;;;;;;;;;;;6.31;nan;98026.97;5034293;28;20074;-62
2023/03/26 05:41:37;;;;;;;;;;;;;;;6.37;nan;98024.34;5008125;28;20351;-62
2023/03/26 05:44:02;;;;;;;;;;;;;;;6.51;nan;98029.25;5015068;28;19925;-58
2023/03/26 05:46:29;;;;;;;;;;;;;;;6.65;nan;98029.09;5008315;28;19959;-61
2023/03/26 05:48:55;;;;;;;;;;;;;;;6.75;nan;98030.63;5014739;28;19917;-60
2023/03/26 05:51:22;;;;;;;;;;;;;;;6.83;nan;98027.13;5017006;28;20377;-60
2023/03/26 05:53:57;;;;;;;;;;;;;;;6.93;nan;98024.44;5024295;28;19921;-61
2023/03/26 05:56:52;;;;;;;;;;;;;;;6.95;nan;98020.19;5006460;28;20273;-61
2023/03/26 05:59:37;;;;;;;;;;;;;;;6.92;nan;98021.06;5020261;28;19955;-60
2023/03/26 06:02:22;;;;;;;;;;;;;;;7.02;nan;98025.16;5016952;28;20518;-62
2023/03/26 06:05:06;;;;;;;;;;;;;;;7.05;nan;98027.66;5005991;28;19983;-61
2023/03/26 06:07:51;;;;;;;;;;;;;;;7.15;nan;98026.66;5002520;28;19929;-61
2023/03/26 06:10:17;;;;;;;;;;;;;;;7.19;nan;98033.41;4998220;28;20264;-61
2023/03/26 06:12:43;;;;;;;;;;;;;;;7.33;nan;98028.94;5016814;28;19928;-61
2023/03/26 06:15:10;;;;;;;;;;;;;;;7.45;nan;98032.16;5016282;28;19931;-61
2023/03/26 06:17:44;;;;;;;;;;;;;;;7.55;nan;98034.53;4999132;28;20397;-64
2023/03/26 06:20:31;;;;;;;;;;;;;;;7.64;nan;98036.91;5000315;28;19974;-60
2023/03/26 06:22:57;;;;;;;;;;;;;;;7.86;nan;98036.53;5003226;28;19929;-61
2023/03/26 06:26:01;;;;;;;;;;;;;;;8.14;nan;98027.53;4941445;28;19922;-62
2023/03/26 06:28:47;;;;;;;;;;;;;;;8.37;nan;98029.66;4926962;28;19927;-61
2023/03/26 06:31:45;;;;;;;;;;;;;;;8.62;nan;98026.56;4905848;28;19926;-60
2023/03/26 06:34:15;;;;;;;;;;;;;;;8.89;nan;98032.81;4937330;28;19936;-60
2023/03/26 06:36:41;;;;;;;;;;;;;;;9.23;nan;98029.50;4932875;28;19921;-61
2023/03/26 06:39:06;;;;;;;;;;;;;;;9.57;nan;98023.53;4935342;28;20016;-60
2023/03/26 06:41:33;;;;;;;;;;;;;;;9.87;nan;98021.06;4947118;28;19923;-61
2023/03/26 06:44:28;;;;;;;;;;;;;;;10.26;nan;98035.41;4937138;28;19988;-61
2023/03/26 06:47:12;;;;;;;;;;;;;;;10.53;nan;98026.09;4947132;28;20408;-60
2023/03/26 06:50:06;;;;;;;;;;;;;;;10.81;nan;98031.28;4954470;28;19922;-61
2023/03/26 06:52:36;;;;;;;;;;;;;;;10.88;nan;98036.19;4955286;28;20008;-63
2023/03/26 06:55:37;;;;;;;;;;;;;;;10.99;nan;98039.25;4922109;29;20066;-60
2023/03/26 06:58:25;;;;;;;;;;;;;;;11.17;nan;98040.41;4951861;28;19921;-61
2023/03/26 07:01:10;;;;;;;;;;;;;;;11.06;nan;98039.09;4937309;28;20352;-61
2023/03/26 07:03:54;;;;;;;;;;;;;;;11.24;nan;98039.38;4951480;28;19932;-60
2023/03/26 07:06:39;;;;;;;;;;;;;;;11.48;nan;98036.91;4952130;28;19941;-60
2023/03/26 07:09:24;;;;;;;;;;;;;;;11.44;nan;98033.59;4954047;28;20153;-60
2023/03/26 07:12:25;;;;;;;;;;;;;;;11.46;nan;98042.06;4953124;28;20161;-62
2023/03/26 07:15:10;;;;;;;;;;;;;;;11.63;nan;98031.25;4955855;28;19926;-61
2023/03/26 07:17:55;;;;;;;;;;;;;;;11.87;nan;98039.03;4954113;28;20294;-60
2023/03/26 07:20:24;;;;;;;;;;;;;;;12.08;nan;98026.34;4950922;28;20619;-60
2023/03/26 07:22:50;;;;;;;;;;;;;;;12.22;nan;98021.56;4933285;28;20234;-60
2023/03/26 07:25:32;;;;;;;;;;;;;;;12.37;nan;98021.03;4950474;28;20803;-60
2023/03/26 07:28:21;;;;;;;;;;;;;;;12.66;nan;98017.38;4952034;28;19945;-60
2023/03/26 07:31:07;;;;;;;;;;;;;;;12.81;nan;98021.97;5006934;28;20242;-60
2023/03/26 07:34:14;;;;;;;;;;;;;;;13.12;nan;98024.22;5009518;28;19921;-60
2023/03/26 07:37:00;;;;;;;;;;;;;;;12.97;nan;98009.34;4962097;28;19921;-60
2023/03/26 07:39:31;;;;;;;;;;;;;;;13.03;nan;98016.81;4973008;28;19968;-61
2023/03/26 07:42:31;;;;;;;;;;;;;;;13.09;nan;98011.44;4992887;28;19952;-60
2023/03/26 07:45:18;;;;;;;;;;;;;;;12.97;nan;98009.34;4993481;28;20502;-60
2023/03/26 07:48:03;;;;;;;;;;;;;;;13.00;nan;98009.22;4981373;28;19925;-61
2023/03/26 07:50:54;;;;;;;;;;;;;;;12.87;nan;98002.88;4979167;28;19928;-60
2023/03/26 07:53:27;;;;;;;;;;;;;;;12.61;nan;97996.97;4998569;28;19921;-61
2023/03/26 07:56:14;;;;;;;;;;;;;;;12.17;nan;97995.19;4982269;28;20448;-61
2023/03/26 07:58:48;;;;;;;;;;;;;;;12.07;nan;97991.25;4978139;28;19927;-64
2023/03/26 08:01:19;;;;;;;;;;;;;;;12.19;nan;97988.25;5002119;28;20456;-61
2023/03/26 08:03:45;;;;;;;;;;;;;;;12.33;nan;97986.03;4996837;28;20219;-61
2023/03/26 08:06:36;;;;;;;;;;;;;;;12.29;nan;97987.03;4996101;28;20047;-60
2023/03/26 08:09:34;;;;;;;;;;;;;;;12.34;nan;97983.44;4995074;28;19922;-61
2023/03/26 08:12:38;;;;;;;;;;;;;;;12.47;nan;97981.25;4952134;28;19928;-60
2023/03/26 08:15:24;;;;;;;;;;;;;;;12.36;nan;97980.78;4948154;28;19922;-57
2023/03/26 08:17:53;;;;;;;;;;;;;;;12.46;nan;97976.97;4944478;28;19965;-61
2023/03/26 08:20:42;;;;;;;;;;;;;;;12.48;nan;97980.31;4946143;28;20330;-60
2023/03/26 08:23:26;;;;;;;;;;;;;;;12.55;nan;97971.50;4948813;28;20046;-61
2023/03/26 08:26:11;;;;;;;;;;;;;;;12.84;nan;97975.53;4930373;28;19961;-61
2023/03/26 08:28:47;;;;;;;;;;;;;;;13.15;nan;97970.06;4944947;28;19922;-61
2023/03/26 08:31:14;;;;;;;;;;;;;;;13.24;nan;97965.38;4946565;28;19922;-61
2023/03/26 08:33:39;;;;;;;;;;;;;;;13.43;nan;97960.31;4945714;28;19933;-61
2023/03/26 08:36:06;;;;;;;;;;;;;;;13.43;nan;97944.03;4943440;28;19954;-62
2023/03/26 08:38:31;;;;;;;;;;;;;;;13.54;nan;97945.25;4938558;28;19968;-61
2023/03/26 08:41:06;;;;;;;;;;;;;;;13.56;nan;97937.47;4982003;28;20344;-61
2023/03/26 08:43:47;;;;;;;;;;;;;;;13.58;nan;97939.06;5001274;28;20431;-61
2023/03/26 08:46:26;;;;;;;;;;;;;;;13.83;nan;97930.31;5025213;28;19952;-62
2023/03/26 08:49:00;;;;;;;;;;;;;;;14.06;nan;97922.41;5024041;28;19946;-62
2023/03/26 08:51:35;;;;;;;;;;;;;;;14.35;nan;97919.38;5023587;28;20474;-61
2023/03/26 08:54:20;;;;;;;;;;;;;;;14.67;nan;97911.91;5028497;28;20332;-62
2023/03/26 08:57:08;;;;;;;;;;;;;;;14.62;nan;97910.38;5028079;28;19986;-61
2023/03/26 08:59:36;;;;;;;;;;;;;;;15.11;nan;97895.13;4990156;28;20760;-61
2023/03/26 09:02:21;;;;;;;;;;;;;;;15.15;nan;97888.91;4986112;28;20457;-61
2023/03/26 09:05:05;;;;;;;;;;;;;;;15.31;nan;97894.16;4987136;28;19921;-62
2023/03/26 09:07:31;;;;;;;;;;;;;;;15.31;nan;97889.84;4987280;28;19928;-61
2023/03/26 09:10:02;;;;;;;;;;;;;;;15.14;nan;97883.84;4989393;28;19921;-61
2023/03/26 09:12:36;;;;;;;;;;;;;;;14.92;nan;97876.28;4987583;28;19967;-62
2023/03/26 09:15:20;;;;;;;;;;;;;;;15.05;nan;97883.38;4989430;28;20359;-64
2023/03/26 09:18:15;;;;;;;;;;;;;;;15.27;nan;97880.56;4989229;28;20023;-63
2023/03/26 09:21:07;;;;;;;;;;;;;;;15.15;nan;97875.19;4978514;28;20017;-63
2023/03/26 09:23:44;;;;;;;;;;;;;;;15.49;nan;97869.97;4984143;28;19921;-62
2023/03/26 09:26:28;;;;;;;;;;;;;;;15.80;nan;97866.69;4988064;28;19967;-59
2023/03/26 09:29:03;;;;;;;;;;;;;;;15.58;nan;97860.94;4986834;28;19929;-62
2023/03/26 09:31:31;;;;;;;;;;;;;;;15.71;nan;97859.41;4988592;28;19961;-63
2023/03/26 09:34:08;;;;;;;;;;;;;;;15.54;nan;97853.38;4988999;28;19921;-61
2023/03/26 09:36:43;;;;;;;;;;;;;;;15.69;nan;97849.16;5006548;28;19925;-61
2023/03/26 09:39:20;;;;;;;;;;;;;;;15.60;nan;97847.06;5027626;28;20012;-61
2023/03/26 09:42:03;;;;;;;;;;;;;;;15.47;nan;97838.22;5027433;28;20023;-61
2023/03/26 09:44:35;;;;;;;;;;;;;;;15.77;nan;97847.00;5027484;28;20022;-60
2023/03/26 09:47:20;;;;;;;;;;;;;;;15.79;nan;97844.31;5035785;28;20276;-58
2023/03/26 09:49:48;;;;;;;;;;;;;;;15.63;nan;97828.81;5028826;28;19921;-59
2023/03/26 09:52:20;;;;;;;;;;;;;;;15.38;nan;97816.28;5027697;28;20277;-58
2023/03/26 09:55:19;;;;;;;;;;;;;;;15.52;nan;97818.19;5028212;28;19928;-55
2023/03/26 09:58:09;;;;;;;;;;;;;;;15.75;nan;97814.41;4983623;28;19927;-59
2023/03/26 10:00:43;;;;;;;;;;;;;;;15.66;nan;97817.50;5023606;28;20268;-59
2023/03/26 10:03:08;;;;;;;;;;;;;;;15.87;nan;97811.19;5023563;28;19929;-59
2023/03/26 10:05:46;;;;;;;;;;;;;;;16.25;nan;97803.94;5023343;28;19943;-59
2023/03/26 10:08:30;;;;;;;;;;;;;;;16.31;nan;97804.41;5026263;28;19921;-59
2023/03/26 10:11:02;;;;;;;;;;;;;;;16.23;nan;97795.41;5025610;28;19920;-60
2023/03/26 10:13:40;;;;;;;;;;;;;;;16.48;nan;97794.88;5035356;28;20011;-59
2023/03/26 10:16:05;;;;;;;;;;;;;;;15.96;nan;97783.06;5026151;28;19921;-59
2023/03/26 10:18:50;;;;;;;;;;;;;;;16.19;nan;97779.22;5029728;28;20263;-59
2023/03/26 10:21:21;;;;;;;;;;;;;;;16.56;nan;97759.06;5027291;28;20173;-58
2023/03/26 10:23:53;;;;;;;;;;;;;;;16.78;nan;97762.13;5028663;28;19928;-59
2023/03/26 10:26:35;;;;;;;;;;;;;;;16.99;nan;97755.69;5031404;28;19924;-58
2023/03/26 10:29:01;;;;;;;;;;;;;;;16.96;nan;97744.69;5029109;28;20043;-59
2023/03/26 10:31:35;;;;;;;;;;;;;;;17.30;nan;97745.19;5030341;28;19993;-60
2023/03/26 10:34:12;;;;;;;;;;;;;;;17.25;nan;97739.44;5030784;28;20384;-60
2023/03/26 10:36:43;;;;;;;;;;;;;;;17.03;nan;97739.03;5030151;28;20431;-60
2023/03/26 10:39:28;;;;;;;;;;;;;;;17.03;nan;97739.03;5029449;28;20015;-59
2023/03/26 10:41:53;;;;;;;;;;;;;;;17.29;nan;97729.72;5032338;28;19921;-60
2023/03/26 10:44:44;;;;;;;;;;;;;;;16.92;nan;97727.66;5031494;28;19923;-60
2023/03/26 10:47:13;;;;;;;;;;;;;;;16.71;nan;97722.00;5031247;28;19921;-59
2023/03/26 10:49:51;;;;;;;;;;;;;;;16.53;nan;97715.25;5030937;28;19927;-60
2023/03/26 10:52:24;;;;;;;;;;;;;;;16.88;nan;97693.38;5027363;28;19927;-60
2023/03/26 10:54:54;;;;;;;;;;;;;;;17.21;nan;97686.16;5029719;28;19928;-60
2023/03/26 10:57:26;;;;;;;;;;;;;;;17.50;nan;97679.19;5027893;28;20088;-59
2023/03/26 10:59:54;;;;;;;;;;;;;;;17.22;nan;97672.28;5029988;28;20195;-60
2023/03/26 11:02:25;;;;;;;;;;;;;;;17.34;nan;97663.75;5030856;28;20459;-60
2023/03/26 11:05:03;;;;;;;;;;;;;;;17.75;nan;97655.19;5032116;28;19948;-59
2023/03/26 11:07:29;;;;;;;;;;;;;;;17.64;nan;97647.25;5027724;28;20027;-60
2023/03/26 11:10:10;;;;;;;;;;;;;;;17.71;nan;97651.09;5027731;28;19927;-60
2023/03/26 11:12:54;;;;;;;;;;;;;;;17.39;nan;97641.91;5030645;28;19927;-60
2023/03/26 11:15:23;;;;;;;;;;;;;;;17.30;nan;97638.97;5030491;28;19960;-59
2023/03/26 11:17:51;;;;;;;;;;;;;;;17.25;nan;97638.41;5030239;28;19966;-59
2023/03/26 11:20:24;;;;;;;;;;;;;;;17.36;nan;97630.78;5028515;28;20015;-59
2023/03/26 11:23:08;;;;;;;;;;;;;;;17.35;nan;97633.50;5028820;28;20305;-59
2023/03/26 11:25:33;;;;;;;;;;;;;;;17.52;nan;97620.31;5026182;28;20062;-60
2023/03/26 11:27:59;;;;;;;;;;;;;;;17.23;nan;97619.53;5027691;28;20529;-60
2023/03/26 11:30:36;;;;;;;;;;;;;;;17.16;nan;97612.22;5038377;28;19921;-59
2023/03/26 11:33:05;;;;;;;;;;;;;;;17.01;nan;97595.06;5029982;28;19967;-60
2023/03/26 11:35:39;;;;;;;;;;;;;;;17.13;nan;97596.88;5027156;28;20005;-60
2023/03/26 11:38:10;;;;;;;;;;;;;;;17.02;nan;97599.28;5030002;28;19925;-59
2023/03/26 11:40:38;;;;;;;;;;;;;;;17.04;nan;97598.28;5030666;28;19931;-59
2023/03/26 11:43:09;;;;;;;;;;;;;;;16.87;nan;97594.13;5029815;28;20383;-60
2023/03/26 11:45:37;;;;;;;;;;;;;;;16.76;nan;97587.97;5031386;28;19940;-60
2023/03/26 11:48:29;;;;;;;;;;;;;;;16.90;nan;97583.59;5033247;28;19927;-60
2023/03/26 11:50:59;;;;;;;;;;;;;;;17.14;nan;97577.84;5027635;28;19917;-59
2023/03/26 11:53:27;;;;;;;;;;;;;;;17.10;nan;97563.41;5030403;28;20453;-61
2023/03/26 11:56:03;;;;;;;;;;;;;;;16.88;nan;97564.75;5029020;28;19944;-60
2023/03/26 11:58:41;;;;;;;;;;;;;;;17.25;nan;97547.75;5026775;28;20048;-58
2023/03/26 12:01:29;;;;;;;;;;;;;;;17.42;nan;97548.44;5029662;28;20407;-60
2023/03/26 12:04:11;;;;;;;;;;;;;;;17.32;nan;97546.41;5029976;28;19967;-60
2023/03/26 12:06:37;;;;;;;;;;;;;;;17.12;nan;97549.44;5030332;28;19927;-59
2023/03/26 12:09:03;;;;;;;;;;;;;;;17.43;nan;97542.31;5030120;28;19925;-60
2023/03/26 12:11:33;;;;;;;;;;;;;;;17.63;nan;97529.78;5029622;28;19936;-61
2023/03/26 12:14:00;;;;;;;;;;;;;;;17.70;nan;97535.38;5029131;28;19924;-60
2023/03/26 12:16:26;;;;;;;;;;;;;;;17.29;nan;97545.78;5028793;28;20003;-59
2023/03/26 12:19:17;;;;;;;;;;;;;;;17.50;nan;97530.63;5029544;28;19917;-59
2023/03/26 12:21:46;;;;;;;;;;;;;;;17.25;nan;97537.38;5029068;28;19920;-59
2023/03/26 12:24:28;;;;;;;;;;;;;;;17.05;nan;97524.84;5029548;28;19921;-59
2023/03/26 12:27:00;;;;;;;;;;;;;;;17.24;nan;97514.16;5034575;28;19931;-59
2023/03/26 12:29:27;;;;;;;;;;;;;;;17.21;nan;97519.53;5029114;28;19920;-59
2023/03/26 12:31:55;;;;;;;;;;;;;;;17.61;nan;97507.47;5029177;28;19932;-59
2023/03/26 12:34:22;;;;;;;;;;;;;;;17.48;nan;97506.59;5029425;28;19952;-59
2023/03/26 12:36:54;;;;;;;;;;;;;;;17.65;nan;97507.16;5028907;28;20482;-61
2023/03/26 12:39:26;;;;;;;;;;;;;;;17.13;nan;97495.88;5028806;28;20605;-60
2023/03/26 12:41:59;;;;;;;;;;;;;;;17.09;nan;97492.66;5036264;28;19955;-60
2023/03/26 12:44:27;;;;;;;;;;;;;;;17.50;nan;97484.81;5028371;28;19921;-59
2023/03/26 12:47:16;;;;;;;;;;;;;;;17.42;nan;97478.47;5025037;28;19921;-59
2023/03/26 12:49:42;;;;;;;;;;;;;;;17.87;nan;97443.50;5017248;28;19947;-60
2023/03/26 12:52:17;;;;;;;;;;;;;;;18.08;nan;97449.84;5030451;28;19921;-60
2023/03/26 12:54:49;;;;;;;;;;;;;;;17.52;nan;97449.28;5031410;28;19948;-58
2023/03/26 12:57:19;;;;;;;;;;;;;;;17.92;nan;97446.63;5030951;28;19954;-60
2023/03/26 12:59:50;;;;;;;;;;;;;;;18.07;nan;97449.03;5029417;28;20269;-60
2023/03/26 13:02:24;;;;;;;;;;;;;;;18.40;nan;97442.47;5038523;28;19924;-59
2023/03/26 13:04:59;;;;;;;;;;;;;;;18.66;nan;97441.50;5029074;28;19925;-60
2023/03/26 13:07:44;;;;;;;;;;;;;;;18.39;nan;97430.41;5024766;28;20468;-60
2023/03/26 13:10:19;;;;;;;;;;;;;;;18.41;nan;97421.59;5025773;28;19921;-60
2023/03/26 13:12:45;;;;;;;;;;;;;;;18.38;nan;97424.38;5028888;28;19921;-60
2023/03/26 13:15:25;;;;;;;;;;;;;;;17.96;nan;97428.16;5027831;28;19925;-59
2023/03/26 13:18:03;;;;;;;;;;;;;;;18.02;nan;97422.56;5036520;28;19925;-60
2023/03/26 13:20:28;;;;;;;;;;;;;;;18.06;nan;97416.25;5027809;28;19921;-60
2023/03/26 13:23:01;;;;;;;;;;;;;;;17.85;nan;97417.69;5028406;28;20418;-60
2023/03/26 13:25:33;;;;;;;;;;;;;;;18.05;nan;97416.34;5027240;28;20019;-60
2023/03/26 13:28:07;;;;;;;;;;;;;;;18.02;nan;97421.75;5029962;28;19925;-59
2023/03/26 13:30:48;;;;;;;;;;;;;;;18.34;nan;97415.16;5026707;28;20826;-60
2023/03/26 13:33:23;;;;;;;;;;;;;;;18.38;nan;97402.78;5027700;28;19925;-60
2023/03/26 13:35:54;;;;;;;;;;;;;;;18.01;nan;97401.91;5027860;28;19920;-59
2023/03/26 13:38:20;;;;;;;;;;;;;;;18.04;nan;97410.31;5029484;28;19920;-59
2023/03/26 13:41:03;;;;;;;;;;;;;;;18.03;nan;97407.84;5028096;28;20304;-59
2023/03/26 13:43:45;;;;;;;;;;;;;;;17.98;nan;97389.19;5027893;28;20058;-59
2023/03/26 13:46:18;;;;;;;;;;;;;;;17.61;nan;97402.00;5028005;28;19925;-59
2023/03/26 13:49:14;;;;;;;;;;;;;;;17.41;nan;97401.66;5029306;28;19956;-59
2023/03/26 13:51:58;;;;;;;;;;;;;;;17.25;nan;97392.31;5027484;28;19920;-59